Time;durP1;ratioP1;P1;durP2;ratioP2;P2;SDS_P1;SDS_P2;PMS_P1;PMS_P2;Temp;Humidity;BMP_temperature;BMP_pressure;BME280_temperature;BME280_humidity;BME280_pressure;Samples;Min_cycle;Max_cycle;Signal;HPM_P1;HPM_P2
2021/12/16 00:01:53;;;;;;;5.40;4.85;;;;;;;;;;6234234;22;20463;-47
2021/12/16 00:05:09;;;;;;;4.68;4.25;;;;;;;;;;6233130;22;20039;-45
2021/12/16 00:07:29;;;;;;;4.63;4.22;;;;;;;;;;6234593;22;20020;-44
2021/12/16 00:34:15;;;;;;;4.70;3.88;;;;;;;;;;6237777;22;20039;-45
2021/12/16 00:36:41;;;;;;;4.97;4.10;;;;;;;;;;6236982;22;20448;-46
2021/12/16 00:39:10;;;;;;;5.22;4.35;;;;;;;;;;6236265;22;20035;-45
2021/12/16 00:41:37;;;;;;;4.75;3.85;;;;;;;;;;6236553;22;20477;-44
2021/12/16 00:44:12;;;;;;;3.70;3.40;;;;;;;;;;6236912;22;20016;-44
2021/12/16 00:54:39;;;;;;;5.60;4.45;;;;;;;;;;6236636;22;20019;-46
2021/12/16 00:57:11;;;;;;;5.55;4.28;;;;;;;;;;6236020;22;20349;-44
2021/12/16 00:59:39;;;;;;;4.68;4.28;;;;;;;;;;6236023;22;20066;-47
2021/12/16 01:02:21;;;;;;;5.55;4.00;;;;;;;;;;6236017;22;20026;-46
2021/12/16 01:40:03;;;;;;;4.70;4.13;;;;;;;;;;6236382;22;20735;-46
2021/12/16 01:50:55;;;;;;;5.20;4.20;;;;;;;;;;6207389;22;20406;-49
2021/12/16 01:56:02;;;;;;;5.75;4.68;;;;;;;;;;6218521;22;19904;-48
2021/12/16 01:58:31;;;;;;;6.90;4.47;;;;;;;;;;6220304;22;20437;-45
2021/12/16 02:01:10;;;;;;;6.93;5.07;;;;;;;;;;6224438;22;20023;-48
2021/12/16 02:03:43;;;;;;;6.72;4.72;;;;;;;;;;6217280;22;20000;-45
2021/12/16 02:08:45;;;;;;;6.63;4.72;;;;;;;;;;6235455;22;20016;-47
2021/12/16 02:33:07;;;;;;;5.50;3.97;;;;;;;;;;6222630;22;20024;-45
2021/12/16 02:35:34;;;;;;;6.80;5.60;;;;;;;;;;6218420;22;20020;-45
2021/12/16 02:38:03;;;;;;;7.47;5.18;;;;;;;;;;6218101;22;20088;-44
2021/12/16 02:40:28;;;;;;;6.38;4.43;;;;;;;;;;6220181;22;20078;-44
2021/12/16 02:50:47;;;;;;;7.13;4.13;;;;;;;;;;6216528;22;20476;-45
2021/12/16 02:53:13;;;;;;;5.40;4.90;;;;;;;;;;6218072;22;20012;-45
2021/12/16 02:55:38;;;;;;;4.72;4.18;;;;;;;;;;6222855;22;20004;-44
2021/12/16 02:58:03;;;;;;;5.57;4.97;;;;;;;;;;6222602;22;20019;-47
2021/12/16 03:00:30;;;;;;;11.70;5.15;;;;;;;;;;6219703;22;20019;-45
2021/12/16 03:02:55;;;;;;;4.97;4.47;;;;;;;;;;6217707;22;20043;-45
2021/12/16 03:05:21;;;;;;;5.78;4.78;;;;;;;;;;6218976;22;20012;-44
2021/12/16 03:07:48;;;;;;;6.35;4.63;;;;;;;;;;6222626;22;20020;-45
2021/12/16 03:15:35;;;;;;;6.28;5.03;;;;;;;;;;6219014;22;20034;-45
2021/12/16 03:18:19;;;;;;;8.90;4.82;;;;;;;;;;6222712;22;20012;-44
2021/12/16 03:20:50;;;;;;;4.78;4.18;;;;;;;;;;6217061;22;20452;-47
2021/12/16 03:38:29;;;;;;;5.35;4.82;;;;;;;;;;6220489;22;20023;-45
2021/12/16 03:40:54;;;;;;;5.35;4.65;;;;;;;;;;6223313;22;20024;-45
2021/12/16 03:43:20;;;;;;;5.70;4.35;;;;;;;;;;6221240;22;20008;-44
2021/12/16 03:48:33;;;;;;;4.47;4.07;;;;;;;;;;6223009;22;20483;-44
2021/12/16 03:50:59;;;;;;;5.30;4.53;;;;;;;;;;6224445;22;20106;-46
2021/12/16 03:53:25;;;;;;;7.38;4.10;;;;;;;;;;6221994;22;20237;-45
2021/12/16 03:55:50;;;;;;;4.25;3.67;;;;;;;;;;6219269;22;20087;-45
2021/12/16 03:58:16;;;;;;;6.07;3.97;;;;;;;;;;6219433;22;20012;-45
2021/12/16 04:00:44;;;;;;;5.47;4.50;;;;;;;;;;6224732;22;20456;-44
2021/12/16 04:03:10;;;;;;;6.32;4.28;;;;;;;;;;6224278;22;20308;-44
2021/12/16 04:05:35;;;;;;;4.60;4.20;;;;;;;;;;6219995;22;20847;-44
2021/12/16 04:08:01;;;;;;;11.20;4.80;;;;;;;;;;6218847;22;20056;-46
2021/12/16 04:10:33;;;;;;;4.82;4.43;;;;;;;;;;6221969;22;20441;-44
2021/12/16 04:13:00;;;;;;;7.05;4.53;;;;;;;;;;6222415;22;20460;-46
2021/12/16 04:15:25;;;;;;;5.38;4.47;;;;;;;;;;6220118;22;20012;-45
2021/12/16 04:17:51;;;;;;;5.25;3.78;;;;;;;;;;6219618;22;20063;-45
2021/12/16 04:20:16;;;;;;;5.93;4.45;;;;;;;;;;6218956;22;20013;-45
2021/12/16 04:22:42;;;;;;;4.88;4.38;;;;;;;;;;6225303;22;20079;-45
2021/12/16 04:25:13;;;;;;;5.40;4.70;;;;;;;;;;6224095;22;20325;-45
2021/12/16 04:27:38;;;;;;;4.88;4.45;;;;;;;;;;6219091;22;20021;-46
2021/12/16 04:30:06;;;;;;;4.57;4.13;;;;;;;;;;6218508;22;20092;-45
2021/12/16 04:32:31;;;;;;;4.65;4.15;;;;;;;;;;6222859;22;20019;-44
2021/12/16 04:34:57;;;;;;;4.85;4.28;;;;;;;;;;6224511;22;20012;-44
2021/12/16 04:37:22;;;;;;;6.75;5.03;;;;;;;;;;6221695;22;20076;-47
2021/12/16 04:39:47;;;;;;;7.97;4.68;;;;;;;;;;6218995;22;20016;-44
2021/12/16 04:42:14;;;;;;;5.03;4.20;;;;;;;;;;6219309;22;20512;-44
2021/12/16 04:44:40;;;;;;;4.57;3.75;;;;;;;;;;6221719;22;20016;-45
2021/12/16 04:47:06;;;;;;;7.38;4.40;;;;;;;;;;6224396;22;20019;-45
2021/12/16 04:49:32;;;;;;;5.35;4.68;;;;;;;;;;6219949;22;20024;-45
2021/12/16 04:51:58;;;;;;;4.50;4.10;;;;;;;;;;6217873;22;20020;-46
2021/12/16 04:54:24;;;;;;;6.28;4.63;;;;;;;;;;6220835;22;20019;-45
2021/12/16 04:56:51;;;;;;;5.25;4.85;;;;;;;;;;6224044;22;20008;-45
2021/12/16 04:59:17;;;;;;;4.88;4.38;;;;;;;;;;6223311;22;20008;-45
2021/12/16 05:01:44;;;;;;;6.05;4.70;;;;;;;;;;6218665;22;20026;-45
2021/12/16 05:04:10;;;;;;;5.25;4.75;;;;;;;;;;6218999;22;20020;-44
2021/12/16 05:06:35;;;;;;;7.57;4.57;;;;;;;;;;6222285;22;20008;-46
2021/12/16 05:09:00;;;;;;;5.55;4.80;;;;;;;;;;6224396;22;20028;-45
2021/12/16 05:11:26;;;;;;;5.75;4.25;;;;;;;;;;6219845;22;20539;-46
2021/12/16 05:13:52;;;;;;;7.28;4.43;;;;;;;;;;6218857;22;20104;-45
2021/12/16 05:16:17;;;;;;;4.35;3.95;;;;;;;;;;6218363;22;20005;-46
2021/12/16 05:18:44;;;;;;;4.60;4.20;;;;;;;;;;6224379;22;20018;-45
2021/12/16 05:21:26;;;;;;;5.07;4.57;;;;;;;;;;6223949;22;20085;-44
2021/12/16 05:26:35;;;;;;;4.88;4.45;;;;;;;;;;6222562;22;20530;-44
2021/12/16 05:29:00;;;;;;;3.95;3.58;;;;;;;;;;6224137;22;20457;-44
2021/12/16 05:31:26;;;;;;;5.22;4.32;;;;;;;;;;6220193;22;20008;-44
2021/12/16 05:33:53;;;;;;;4.30;3.97;;;;;;;;;;6219053;22;20717;-45
2021/12/16 05:36:19;;;;;;;4.05;3.65;;;;;;;;;;6219043;22;20020;-46
2021/12/16 05:38:45;;;;;;;4.38;3.97;;;;;;;;;;6224210;22;20012;-44
2021/12/16 05:41:13;;;;;;;4.60;4.10;;;;;;;;;;6223189;22;20391;-45
2021/12/16 05:43:38;;;;;;;4.75;4.35;;;;;;;;;;6218207;22;20005;-44
2021/12/16 05:46:05;;;;;;;5.40;4.45;;;;;;;;;;6218896;22;20353;-45
2021/12/16 05:48:31;;;;;;;4.72;4.20;;;;;;;;;;6221033;22;20025;-45
2021/12/16 05:50:58;;;;;;;5.07;4.68;;;;;;;;;;6223419;22;20543;-45
2021/12/16 05:53:24;;;;;;;5.20;4.70;;;;;;;;;;6220804;22;20057;-45
2021/12/16 05:55:50;;;;;;;7.88;4.40;;;;;;;;;;6217845;22;20084;-45
2021/12/16 05:58:18;;;;;;;4.75;4.05;;;;;;;;;;6218163;22;20016;-44
2021/12/16 06:00:44;;;;;;;5.05;4.40;;;;;;;;;;6222940;22;20016;-44
2021/12/16 06:03:09;;;;;;;5.22;3.53;;;;;;;;;;6223723;22;20050;-45
2021/12/16 06:05:35;;;;;;;4.40;4.00;;;;;;;;;;6217813;22;20013;-47
2021/12/16 06:08:01;;;;;;;5.10;4.40;;;;;;;;;;6217777;22;20519;-46
2021/12/16 06:12:58;;;;;;;5.43;4.18;;;;;;;;;;6239203;22;20023;-44
2021/12/16 06:15:42;;;;;;;5.40;4.22;;;;;;;;;;6235090;22;20083;-45
2021/12/16 06:29:18;;;;;;;4.22;3.70;;;;;;;;;;6184432;22;20099;-44
2021/12/16 06:31:43;;;;;;;5.60;4.88;;;;;;;;;;6236330;22;20039;-45
2021/12/16 06:34:09;;;;;;;4.60;3.90;;;;;;;;;;6235477;22;20012;-44
2021/12/16 06:36:34;;;;;;;4.32;3.92;;;;;;;;;;6235604;22;20023;-45
2021/12/16 06:38:59;;;;;;;5.47;3.42;;;;;;;;;;6235461;22;20008;-44
2021/12/16 06:41:27;;;;;;;4.55;3.85;;;;;;;;;;6235604;22;20020;-44
2021/12/16 06:43:55;;;;;;;4.05;3.65;;;;;;;;;;6235490;22;20013;-44
2021/12/16 06:46:29;;;;;;;2.28;2.10;;;;;;;;;;6235424;22;20046;-45
2021/12/16 06:48:58;;;;;;;2.60;2.03;;;;;;;;;;6235484;22;20027;-46
2021/12/16 06:51:35;;;;;;;3.53;2.90;;;;;;;;;;6234160;22;20777;-46
2021/12/16 06:54:07;;;;;;;3.60;3.13;;;;;;;;;;6235316;22;20008;-45
2021/12/16 06:56:41;;;;;;;5.78;3.15;;;;;;;;;;6233223;22;20381;-45
2021/12/16 06:59:11;;;;;;;3.70;3.10;;;;;;;;;;6235219;22;20022;-45
2021/12/16 07:04:03;;;;;;;5.40;3.50;;;;;;;;;;6235197;22;20027;-45
2021/12/16 07:06:30;;;;;;;4.55;3.58;;;;;;;;;;6232431;22;20016;-44
2021/12/16 07:09:00;;;;;;;3.15;2.85;;;;;;;;;;6235475;22;20070;-45
2021/12/16 07:11:25;;;;;;;3.88;3.05;;;;;;;;;;6234536;22;20012;-46
2021/12/16 07:14:01;;;;;;;3.58;3.28;;;;;;;;;;6235571;22;20012;-45
2021/12/16 07:16:28;;;;;;;4.60;3.30;;;;;;;;;;6234216;22;20012;-45
2021/12/16 07:18:55;;;;;;;3.83;3.08;;;;;;;;;;6236077;22;20092;-44
2021/12/16 07:21:20;;;;;;;3.58;3.17;;;;;;;;;;6236243;22;20105;-45
2021/12/16 07:23:46;;;;;;;3.42;3.08;;;;;;;;;;6238306;22;20437;-46
2021/12/16 07:26:11;;;;;;;5.07;4.00;;;;;;;;;;6236911;22;20016;-45
2021/12/16 07:28:36;;;;;;;3.47;3.17;;;;;;;;;;6237249;22;20016;-44
2021/12/16 07:31:01;;;;;;;4.38;3.20;;;;;;;;;;6237252;22;20069;-48
2021/12/16 07:33:27;;;;;;;3.58;3.25;;;;;;;;;;6237444;22;20012;-45
2021/12/16 07:35:53;;;;;;;5.45;3.90;;;;;;;;;;6236774;22;20015;-44
2021/12/16 07:38:19;;;;;;;3.95;3.47;;;;;;;;;;6237354;22;20089;-45
2021/12/16 07:40:46;;;;;;;4.05;3.67;;;;;;;;;;6237363;22;20445;-44
2021/12/16 07:43:23;;;;;;;4.93;4.05;;;;;;;;;;6238532;22;20024;-44
2021/12/16 07:45:51;;;;;;;3.78;3.45;;;;;;;;;;6220429;22;20010;-44
2021/12/16 07:48:18;;;;;;;3.72;3.42;;;;;;;;;;6218247;22;20024;-46
2021/12/16 07:50:45;;;;;;;4.72;4.22;;;;;;;;;;6219092;22;20075;-44
2021/12/16 07:53:10;;;;;;;4.35;3.85;;;;;;;;;;6219799;22;20442;-45
2021/12/16 07:55:36;;;;;;;4.38;3.55;;;;;;;;;;6223426;22;20042;-46
2021/12/16 07:58:02;;;;;;;4.50;3.90;;;;;;;;;;6225048;22;20016;-44
2021/12/16 08:00:28;;;;;;;5.88;4.07;;;;;;;;;;6220858;22;20014;-44
2021/12/16 08:02:54;;;;;;;4.88;3.90;;;;;;;;;;6219361;22;20095;-44
2021/12/16 08:05:21;;;;;;;4.10;3.67;;;;;;;;;;6219257;22;20794;-44
2021/12/16 08:07:46;;;;;;;4.90;4.40;;;;;;;;;;6223242;22;20046;-46
2021/12/16 08:10:13;;;;;;;4.78;4.10;;;;;;;;;;6223355;22;20023;-44
2021/12/16 08:12:39;;;;;;;4.13;3.83;;;;;;;;;;6217470;22;20643;-46
2021/12/16 08:15:05;;;;;;;4.57;4.07;;;;;;;;;;6218937;22;20028;-45
2021/12/16 08:17:30;;;;;;;5.35;4.32;;;;;;;;;;6222439;22;20083;-44
2021/12/16 08:19:55;;;;;;;9.52;3.70;;;;;;;;;;6224284;22;20051;-44
2021/12/16 08:22:21;;;;;;;4.40;3.95;;;;;;;;;;6221844;22;20074;-46
2021/12/16 08:24:46;;;;;;;3.42;3.13;;;;;;;;;;6219125;22;20059;-45
2021/12/16 08:27:11;;;;;;;6.57;3.85;;;;;;;;;;6219315;22;20013;-45
2021/12/16 08:29:37;;;;;;;4.80;4.18;;;;;;;;;;6223193;22;20064;-45
2021/12/16 08:32:03;;;;;;;6.07;3.88;;;;;;;;;;6224898;22;20012;-45
2021/12/16 08:34:31;;;;;;;5.32;3.13;;;;;;;;;;6220749;22;20012;-44
2021/12/16 08:36:57;;;;;;;7.43;3.88;;;;;;;;;;6219605;22;20004;-44
2021/12/16 08:39:23;;;;;;;5.00;4.50;;;;;;;;;;6220420;22;20016;-45
2021/12/16 08:41:49;;;;;;;4.35;3.90;;;;;;;;;;6224160;22;20016;-44
2021/12/16 08:44:16;;;;;;;4.05;3.65;;;;;;;;;;6223529;22;20012;-47
2021/12/16 08:46:44;;;;;;;4.97;3.92;;;;;;;;;;6218704;22;20035;-44
2021/12/16 08:49:09;;;;;;;4.28;3.38;;;;;;;;;;6215151;22;20024;-46
2021/12/16 08:51:37;;;;;;;3.95;3.55;;;;;;;;;;6219754;22;20093;-44
2021/12/16 08:54:03;;;;;;;5.45;4.28;;;;;;;;;;6220812;22;20095;-44
2021/12/16 08:56:28;;;;;;;4.07;3.55;;;;;;;;;;6217850;22;20792;-45
2021/12/16 08:58:55;;;;;;;4.05;3.70;;;;;;;;;;6216217;22;20013;-45
2021/12/16 09:01:22;;;;;;;3.95;3.65;;;;;;;;;;6213240;22;20020;-45
2021/12/16 09:03:47;;;;;;;7.78;4.55;;;;;;;;;;6210703;22;20012;-46
2021/12/16 09:06:12;;;;;;;5.57;3.63;;;;;;;;;;6214442;22;20000;-46
2021/12/16 09:08:38;;;;;;;3.90;3.50;;;;;;;;;;6212096;22;20032;-45
2021/12/16 09:11:07;;;;;;;4.43;3.90;;;;;;;;;;6211635;22;20019;-46
2021/12/16 09:13:33;;;;;;;4.00;3.67;;;;;;;;;;6217031;22;20047;-44
2021/12/16 09:16:00;;;;;;;6.13;4.13;;;;;;;;;;6216828;22;20035;-45
2021/12/16 09:18:27;;;;;;;4.22;3.83;;;;;;;;;;6213600;22;20019;-46
2021/12/16 09:20:53;;;;;;;4.80;4.30;;;;;;;;;;6211822;22;20641;-44
2021/12/16 09:23:18;;;;;;;5.82;3.70;;;;;;;;;;6213626;22;20028;-43
2021/12/16 09:25:44;;;;;;;4.45;4.05;;;;;;;;;;6215993;22;20096;-45
2021/12/16 09:28:10;;;;;;;5.70;4.35;;;;;;;;;;6216802;22;20036;-44
2021/12/16 09:30:35;;;;;;;5.13;3.65;;;;;;;;;;6212839;22;20468;-45
2021/12/16 09:33:03;;;;;;;5.18;4.32;;;;;;;;;;6210927;22;20019;-44
2021/12/16 09:35:30;;;;;;;6.22;4.03;;;;;;;;;;6215341;22;20023;-45
2021/12/16 09:37:56;;;;;;;4.50;3.63;;;;;;;;;;6216413;22;20016;-44
2021/12/16 09:40:23;;;;;;;6.60;3.47;;;;;;;;;;6215368;22;20020;-46
2021/12/16 09:42:50;;;;;;;7.28;4.10;;;;;;;;;;6209804;23;20004;-46
2021/12/16 09:45:15;;;;;;;5.63;3.95;;;;;;;;;;6198972;23;20016;-46
2021/12/16 09:47:41;;;;;;;5.60;3.60;;;;;;;;;;6197547;23;20028;-45
2021/12/16 09:50:08;;;;;;;4.25;3.90;;;;;;;;;;6199348;23;20091;-46
2021/12/16 09:52:34;;;;;;;4.75;3.70;;;;;;;;;;6215950;22;20035;-47
2021/12/16 09:54:59;;;;;;;4.78;3.90;;;;;;;;;;6217226;22;20016;-44
2021/12/16 09:57:25;;;;;;;4.85;3.55;;;;;;;;;;6214021;22;20448;-45
2021/12/16 09:59:51;;;;;;;4.80;4.30;;;;;;;;;;6212122;22;20012;-47
2021/12/16 10:02:17;;;;;;;4.60;3.30;;;;;;;;;;6211657;22;20036;-45
2021/12/16 10:04:43;;;;;;;4.63;3.83;;;;;;;;;;6217822;22;20386;-46
2021/12/16 10:07:11;;;;;;;4.55;3.40;;;;;;;;;;6216298;22;20051;-46
2021/12/16 10:09:37;;;;;;;5.22;3.72;;;;;;;;;;6202846;22;20016;-45
2021/12/16 10:12:08;;;;;;;3.60;3.30;;;;;;;;;;6218716;22;20020;-46
2021/12/16 10:14:48;;;;;;;4.65;3.55;;;;;;;;;;6218596;22;20013;-44
2021/12/16 10:19:47;;;;;;;3.55;3.22;;;;;;;;;;6227003;22;20008;-48
2021/12/16 10:22:29;;;;;;;5.90;3.17;;;;;;;;;;6222997;22;20022;-45
2021/12/16 10:24:56;;;;;;;2.30;1.80;;;;;;;;;;6217919;22;20075;-45
2021/12/16 10:27:23;;;;;;;2.55;1.77;;;;;;;;;;6218735;22;20035;-48
2021/12/16 10:29:51;;;;;;;2.42;2.08;;;;;;;;;;6223908;22;20016;-44
2021/12/16 10:32:36;;;;;;;2.17;1.83;;;;;;;;;;6220821;22;20008;-44
2021/12/16 10:35:03;;;;;;;1.77;1.67;;;;;;;;;;6217223;22;20078;-45
2021/12/16 10:37:32;;;;;;;1.92;1.83;;;;;;;;;;6220707;22;20044;-44
2021/12/16 10:40:16;;;;;;;2.42;2.22;;;;;;;;;;6222351;22;20448;-45
2021/12/16 10:42:47;;;;;;;3.22;2.20;;;;;;;;;;6217298;22;20021;-44
2021/12/16 10:45:31;;;;;;;2.28;2.08;;;;;;;;;;6217596;22;20168;-46
2021/12/16 10:48:25;;;;;;;2.65;2.42;;;;;;;;;;6214881;23;20040;-44
2021/12/16 10:50:59;;;;;;;2.85;2.55;;;;;;;;;;6190582;22;20083;-47
2021/12/16 10:53:43;;;;;;;3.03;2.33;;;;;;;;;;6219558;22;20087;-45
2021/12/16 10:56:09;;;;;;;2.58;2.08;;;;;;;;;;6222291;22;20067;-47
2021/12/16 10:58:47;;;;;;;2.97;2.70;;;;;;;;;;6218419;22;20012;-46
2021/12/16 11:01:48;;;;;;;3.63;2.90;;;;;;;;;;6215167;22;20030;-42
2021/12/16 11:04:28;;;;;;;2.67;2.47;;;;;;;;;;6138744;23;20018;-44
2021/12/16 11:06:59;;;;;;;2.38;2.10;;;;;;;;;;6211059;22;20030;-46
2021/12/16 11:09:30;;;;;;;2.80;2.20;;;;;;;;;;6219141;22;20020;-45
2021/12/16 11:12:10;;;;;;;3.33;2.22;;;;;;;;;;6215433;23;20099;-44
2021/12/16 11:14:36;;;;;;;1.70;1.60;;;;;;;;;;6204447;23;20877;-44
2021/12/16 11:17:03;;;;;;;2.38;1.40;;;;;;;;;;6217315;22;20096;-45
2021/12/16 11:19:43;;;;;;;1.85;1.58;;;;;;;;;;6220553;22;20012;-45
2021/12/16 11:22:10;;;;;;;2.33;1.88;;;;;;;;;;6222715;22;20107;-45
2021/12/16 11:24:35;;;;;;;2.15;1.60;;;;;;;;;;6216838;22;20087;-46
2021/12/16 11:27:18;;;;;;;1.92;1.83;;;;;;;;;;6217758;22;20032;-44
2021/12/16 11:29:43;;;;;;;2.03;1.83;;;;;;;;;;6216726;22;20021;-45
2021/12/16 11:32:11;;;;;;;2.22;2.03;;;;;;;;;;6217832;22;20025;-44
2021/12/16 11:34:36;;;;;;;2.00;1.80;;;;;;;;;;6221518;22;20012;-44
2021/12/16 11:37:02;;;;;;;2.17;1.80;;;;;;;;;;6223181;22;20882;-44
2021/12/16 11:39:29;;;;;;;2.45;2.22;;;;;;;;;;6218858;22;20020;-44
2021/12/16 11:41:56;;;;;;;2.30;2.10;;;;;;;;;;6215757;23;20007;-44
2021/12/16 11:44:23;;;;;;;1.67;1.58;;;;;;;;;;6203929;23;20067;-46
2021/12/16 11:46:50;;;;;;;1.60;1.50;;;;;;;;;;6217807;22;20016;-46
2021/12/16 11:49:21;;;;;;;2.75;1.80;;;;;;;;;;6216988;22;20027;-45
2021/12/16 11:51:50;;;;;;;2.10;1.90;;;;;;;;;;6222257;22;20012;-44
2021/12/16 11:54:15;;;;;;;2.33;2.13;;;;;;;;;;6219081;22;20043;-45
2021/12/16 11:56:45;;;;;;;2.60;1.92;;;;;;;;;;6209337;22;20012;-44
2021/12/16 11:59:11;;;;;;;3.35;1.98;;;;;;;;;;6211189;22;20088;-45
2021/12/16 12:01:38;;;;;;;2.50;2.30;;;;;;;;;;6215026;22;20031;-46
2021/12/16 12:04:06;;;;;;;2.17;1.98;;;;;;;;;;6228370;22;20012;-44
2021/12/16 12:06:32;;;;;;;2.35;2.15;;;;;;;;;;6229656;22;20012;-45
2021/12/16 12:08:58;;;;;;;3.00;2.72;;;;;;;;;;6230935;22;20373;-43
2021/12/16 12:11:28;;;;;;;2.47;1.92;;;;;;;;;;6229218;22;20012;-45
2021/12/16 12:13:57;;;;;;;2.92;1.60;;;;;;;;;;6229786;22;20077;-43
2021/12/16 12:16:25;;;;;;;2.50;2.30;;;;;;;;;;6229544;22;20502;-44
2021/12/16 12:18:55;;;;;;;1.98;1.73;;;;;;;;;;6227474;23;20016;-44
2021/12/16 12:21:20;;;;;;;;;;;;;;;;;;6230572;22;20008;-44
2021/12/16 12:23:46;;;;;;;1.95;1.85;;;;;;;;;;6227560;23;19983;-44
2021/12/16 12:26:15;;;;;;;2.35;1.83;;;;;;;;;;6229527;22;20008;-44
2021/12/16 12:28:41;;;;;;;2.20;2.00;;;;;;;;;;6231617;22;20058;-43
2021/12/16 12:31:07;;;;;;;2.13;2.00;;;;;;;;;;6230305;22;20115;-44
2021/12/16 12:33:32;;;;;;;2.17;1.98;;;;;;;;;;6230302;22;20151;-44
2021/12/16 12:35:57;;;;;;;1.83;1.70;;;;;;;;;;6229652;22;20059;-46
2021/12/16 12:38:23;;;;;;;2.20;1.95;;;;;;;;;;6230060;22;20066;-44
2021/12/16 12:40:48;;;;;;;1.77;1.67;;;;;;;;;;6225789;22;20012;-44
2021/12/16 12:43:16;;;;;;;3.17;1.67;;;;;;;;;;6227676;22;20062;-44
2021/12/16 12:45:42;;;;;;;2.05;1.83;;;;;;;;;;6230935;22;20004;-47
2021/12/16 12:48:12;;;;;;;1.83;1.73;;;;;;;;;;6230548;22;20024;-44
2021/12/16 12:50:39;;;;;;;1.88;1.77;;;;;;;;;;6223486;23;20036;-45
2021/12/16 12:53:11;;;;;;;2.20;2.00;;;;;;;;;;6227560;22;20008;-46
2021/12/16 12:55:37;;;;;;;1.70;1.60;;;;;;;;;;6227241;22;20023;-44
2021/12/16 12:58:10;;;;;;;1.70;1.60;;;;;;;;;;6226709;22;20021;-45
2021/12/16 13:00:44;;;;;;;2.20;2.00;;;;;;;;;;6225098;22;20086;-44
2021/12/16 13:03:17;;;;;;;2.35;1.90;;;;;;;;;;6227485;22;20035;-44
2021/12/16 13:05:49;;;;;;;1.92;1.75;;;;;;;;;;6227691;22;20391;-44
2021/12/16 13:08:17;;;;;;;2.50;2.30;;;;;;;;;;6226728;22;20031;-43
2021/12/16 13:10:44;;;;;;;2.83;2.45;;;;;;;;;;6226880;22;20491;-44
2021/12/16 13:13:46;;;;;;;2.75;2.33;;;;;;;;;;6228507;22;20016;-45
2021/12/16 13:16:34;;;;;;;2.58;2.38;;;;;;;;;;6209978;22;20011;-45
2021/12/16 13:27:39;;;;;;;2.20;2.00;;;;;;;;;;6227392;22;20020;-45
2021/12/16 13:30:20;;;;;;;2.88;2.00;;;;;;;;;;6228483;22;20012;-45
2021/12/16 13:33:13;;;;;;;2.78;2.42;;;;;;;;;;6225827;22;20019;-44
2021/12/16 13:35:46;;;;;;;2.85;2.65;;;;;;;;;;6227371;22;20000;-45
2021/12/16 13:38:12;;;;;;;2.75;2.55;;;;;;;;;;6228551;22;20016;-45
2021/12/16 13:40:38;;;;;;;3.78;2.63;;;;;;;;;;6228210;22;20006;-44
2021/12/16 13:43:11;;;;;;;2.38;2.17;;;;;;;;;;6228942;22;20072;-43
2021/12/16 13:46:04;;;;;;;4.25;2.45;;;;;;;;;;6228262;22;20015;-44
2021/12/16 14:03:29;;;;;;;3.10;2.40;;;;;;;;;;6199496;22;20443;-45
2021/12/16 14:08:37;;;;;;;3.17;2.40;;;;;;;;;;6214954;22;20087;-46
2021/12/16 14:11:28;;;;;;;2.70;2.50;;;;;;;;;;6216715;22;20020;-45
2021/12/16 14:14:31;;;;;;;4.35;2.80;;;;;;;;;;6210318;22;20075;-44
2021/12/16 14:27:20;;;;;;;3.42;3.13;;;;;;;;;;6216045;22;20016;-44
2021/12/16 14:35:03;;;;;;;3.03;2.80;;;;;;;;;;6216400;22;20016;-44
2021/12/16 14:37:49;;;;;;;3.78;3.22;;;;;;;;;;6212059;22;20040;-45
2021/12/16 14:40:37;;;;;;;3.85;3.55;;;;;;;;;;6212014;22;20119;-44
2021/12/16 14:43:15;;;;;;;4.40;3.95;;;;;;;;;;6216367;22;20036;-47
2021/12/16 14:45:45;;;;;;;3.60;3.30;;;;;;;;;;6211199;22;20004;-43
2021/12/16 14:50:41;;;;;;;6.15;3.75;;;;;;;;;;6210311;22;20408;-46
2021/12/16 14:53:12;;;;;;;4.60;3.33;;;;;;;;;;6212328;22;20021;-44
2021/12/16 14:55:38;;;;;;;4.03;3.60;;;;;;;;;;6210767;22;20058;-46
2021/12/16 14:58:04;;;;;;;3.65;3.35;;;;;;;;;;6211497;22;20088;-44
2021/12/16 15:00:35;;;;;;;6.88;4.30;;;;;;;;;;6214110;22;20020;-47
2021/12/16 15:03:13;;;;;;;4.30;3.40;;;;;;;;;;6217020;22;20008;-45
2021/12/16 15:05:43;;;;;;;3.65;3.20;;;;;;;;;;6211460;22;20446;-46
2021/12/16 15:08:12;;;;;;;4.07;3.78;;;;;;;;;;6210688;22;20048;-44
2021/12/16 15:10:37;;;;;;;3.50;3.20;;;;;;;;;;6211502;22;20008;-44
2021/12/16 15:13:13;;;;;;;4.40;4.00;;;;;;;;;;6220463;22;20265;-46
2021/12/16 15:35:52;;;;;;;4.22;3.80;;;;;;;;;;6210840;22;20009;-44
2021/12/16 15:42:51;;;;;;;5.22;4.15;;;;;;;;;;6212154;22;20031;-44
2021/12/16 15:45:18;;;;;;;4.72;4.25;;;;;;;;;;6212122;22;20393;-45
2021/12/16 15:48:03;;;;;;;4.75;4.28;;;;;;;;;;6217886;22;20023;-44
2021/12/16 15:50:29;;;;;;;4.30;4.00;;;;;;;;;;6212500;22;20020;-44
2021/12/16 15:52:55;;;;;;;5.07;4.55;;;;;;;;;;6213271;22;20336;-46
2021/12/16 15:55:35;;;;;;;4.90;4.40;;;;;;;;;;6214370;22;20032;-45
2021/12/16 15:58:33;;;;;;;5.85;4.75;;;;;;;;;;6218146;22;20020;-45
2021/12/16 16:01:02;;;;;;;6.35;4.80;;;;;;;;;;6168873;22;20044;-44
2021/12/16 16:03:28;;;;;;;3.83;3.53;;;;;;;;;;6215853;22;20024;-44
2021/12/16 16:05:55;;;;;;;4.45;4.03;;;;;;;;;;6217622;22;20016;-45
2021/12/16 16:08:22;;;;;;;4.80;4.35;;;;;;;;;;6215762;22;20096;-45
2021/12/16 16:10:53;;;;;;;5.75;4.43;;;;;;;;;;6213462;22;20012;-45
2021/12/16 16:13:20;;;;;;;5.32;4.10;;;;;;;;;;6214207;22;20096;-44
2021/12/16 16:15:48;;;;;;;6.53;4.90;;;;;;;;;;6216966;22;20015;-45
2021/12/16 16:18:40;;;;;;;5.57;4.43;;;;;;;;;;6218369;22;20016;-44
2021/12/16 16:21:16;;;;;;;4.45;4.05;;;;;;;;;;6211910;22;20038;-44
2021/12/16 16:23:42;;;;;;;4.07;3.67;;;;;;;;;;6211293;22;20028;-43
2021/12/16 16:26:09;;;;;;;4.40;4.10;;;;;;;;;;6213168;22;20013;-44
2021/12/16 16:28:38;;;;;;;5.15;4.65;;;;;;;;;;6216066;22;20013;-45
2021/12/16 16:31:06;;;;;;;5.75;4.72;;;;;;;;;;6217966;22;20029;-43
2021/12/16 16:33:32;;;;;;;4.07;3.67;;;;;;;;;;6213401;22;20395;-44
2021/12/16 16:36:01;;;;;;;5.07;4.60;;;;;;;;;;6212697;22;20036;-44
2021/12/16 16:38:34;;;;;;;4.70;4.30;;;;;;;;;;6214979;22;20481;-44
2021/12/16 16:41:03;;;;;;;5.20;4.70;;;;;;;;;;6217590;22;20084;-44
2021/12/16 16:43:30;;;;;;;4.47;4.07;;;;;;;;;;6215101;22;20016;-43
2021/12/16 16:45:58;;;;;;;4.50;4.10;;;;;;;;;;6211918;22;20040;-44
2021/12/16 16:51:09;;;;;;;4.63;4.22;;;;;;;;;;6219233;22;20035;-45
2021/12/16 16:53:43;;;;;;;4.55;4.15;;;;;;;;;;6213688;22;20143;-44
2021/12/16 16:56:09;;;;;;;4.45;3.80;;;;;;;;;;6210642;23;20012;-42
2021/12/16 16:58:34;;;;;;;4.68;3.70;;;;;;;;;;6200252;23;20016;-43
2021/12/16 17:01:01;;;;;;;4.80;3.85;;;;;;;;;;6213405;22;20032;-43
2021/12/16 17:03:26;;;;;;;3.78;3.47;;;;;;;;;;6214080;22;20016;-46
2021/12/16 17:05:57;;;;;;;5.05;4.55;;;;;;;;;;6217775;22;20008;-43
2021/12/16 17:08:24;;;;;;;5.18;4.68;;;;;;;;;;6215358;22;20027;-45
2021/12/16 17:10:49;;;;;;;4.70;4.30;;;;;;;;;;6212222;22;20012;-44
2021/12/16 17:13:22;;;;;;;6.05;3.95;;;;;;;;;;6212275;22;20013;-47
2021/12/16 17:18:20;;;;;;;6.10;4.40;;;;;;;;;;6216213;22;20012;-46
2021/12/16 17:20:45;;;;;;;6.65;4.90;;;;;;;;;;6206465;22;20031;-45
2021/12/16 17:23:13;;;;;;;5.90;5.40;;;;;;;;;;6216804;22;20016;-46
2021/12/16 17:25:39;;;;;;;7.43;5.22;;;;;;;;;;6211095;22;20050;-43
2021/12/16 17:28:04;;;;;;;6.03;5.45;;;;;;;;;;6212560;22;20451;-47
2021/12/16 17:30:31;;;;;;;6.20;5.20;;;;;;;;;;6220609;22;20094;-43
2021/12/16 17:32:57;;;;;;;5.50;5.00;;;;;;;;;;6218096;22;20040;-44
2021/12/16 17:35:22;;;;;;;5.65;4.68;;;;;;;;;;6216459;22;20008;-44
2021/12/16 17:37:50;;;;;;;4.90;4.43;;;;;;;;;;6218988;22;20091;-46
2021/12/16 17:40:20;;;;;;;5.50;5.00;;;;;;;;;;6218992;22;20517;-44
2021/12/16 17:42:45;;;;;;;5.97;4.95;;;;;;;;;;6224261;22;20009;-43
2021/12/16 17:45:34;;;;;;;5.28;4.78;;;;;;;;;;6222572;22;20476;-46
2021/12/16 17:48:01;;;;;;;6.90;4.95;;;;;;;;;;6211018;22;20016;-44
2021/12/16 17:50:31;;;;;;;6.25;5.55;;;;;;;;;;6219684;22;20276;-44
2021/12/16 17:52:58;;;;;;;5.53;5.03;;;;;;;;;;6218737;22;20067;-43
2021/12/16 17:55:37;;;;;;;7.70;5.95;;;;;;;;;;6220230;22;20099;-50
2021/12/16 17:58:09;;;;;;;5.65;5.13;;;;;;;;;;6224132;22;20531;-43
2021/12/16 18:00:39;;;;;;;4.85;4.45;;;;;;;;;;6217841;22;20028;-46
2021/12/16 18:03:05;;;;;;;5.15;4.50;;;;;;;;;;6217264;22;20036;-44
2021/12/16 18:05:42;;;;;;;5.00;4.50;;;;;;;;;;6221087;22;20047;-43
2021/12/16 18:08:08;;;;;;;5.80;4.63;;;;;;;;;;6223797;22;20016;-43
2021/12/16 18:10:33;;;;;;;7.18;4.97;;;;;;;;;;6217328;22;20478;-43
2021/12/16 18:12:58;;;;;;;5.38;4.88;;;;;;;;;;6217847;22;20736;-45
2021/12/16 18:15:26;;;;;;;10.38;6.60;;;;;;;;;;6219520;22;20556;-46
2021/12/16 18:18:04;;;;;;;5.55;5.05;;;;;;;;;;6223094;22;20062;-48
2021/12/16 18:20:34;;;;;;;6.00;5.10;;;;;;;;;;6214085;22;20016;-45
2021/12/16 18:23:02;;;;;;;5.40;4.80;;;;;;;;;;6215319;22;20019;-47
2021/12/16 18:25:30;;;;;;;5.20;4.60;;;;;;;;;;6218350;22;20062;-44
2021/12/16 18:28:14;;;;;;;4.97;4.47;;;;;;;;;;6220069;22;20405;-44
2021/12/16 18:30:41;;;;;;;6.40;5.80;;;;;;;;;;6220536;22;20213;-44
2021/12/16 18:33:09;;;;;;;5.07;4.57;;;;;;;;;;6220465;22;20349;-44
2021/12/16 18:35:36;;;;;;;5.55;5.05;;;;;;;;;;6215068;22;20032;-44
2021/12/16 18:38:06;;;;;;;5.50;5.00;;;;;;;;;;6214663;22;20021;-43
2021/12/16 18:40:32;;;;;;;5.78;4.93;;;;;;;;;;6217890;22;20092;-46
2021/12/16 18:42:59;;;;;;;5.38;4.88;;;;;;;;;;6219237;22;20066;-44
2021/12/16 18:45:26;;;;;;;4.43;3.40;;;;;;;;;;6216665;22;20111;-44